Time;durP1;ratioP1;P1;durP2;ratioP2;P2;SDS_P1;SDS_P2;PMS_P1;PMS_P2;Temp;Humidity;BMP_temperature;BMP_pressure;BME280_temperature;BME280_humidity;BME280_pressure;Samples;Min_cycle;Max_cycle;Signal;HPM_P1;HPM_P2
2021/09/21 00:00:23;;;;;;;15.80;12.02;;;;;;;10.45;89.26;100991.13;5093640;28;20096;-63
2021/09/21 00:02:48;;;;;;;18.08;12.27;;;;;;;10.40;90.05;100996.03;5093570;28;20122;-63
2021/09/21 00:05:14;;;;;;;17.60;12.40;;;;;;;10.38;90.57;100986.41;5093442;28;20079;-64
2021/09/21 00:07:40;;;;;;;16.35;11.80;;;;;;;10.33;90.68;100983.19;5093377;28;20518;-64
2021/09/21 00:10:07;;;;;;;15.57;11.05;;;;;;;10.29;90.71;100987.91;5093119;28;20115;-64
2021/09/21 00:12:34;;;;;;;16.50;11.73;;;;;;;10.23;91.00;100980.38;5093253;28;20055;-63
2021/09/21 00:14:59;;;;;;;18.65;12.02;;;;;;;10.19;90.61;100984.22;5093727;28;20024;-63
2021/09/21 00:17:25;;;;;;;17.60;11.63;;;;;;;10.16;90.29;100987.13;5093747;28;20500;-64
2021/09/21 00:19:50;;;;;;;15.60;10.52;;;;;;;10.14;90.43;100986.41;5093782;28;20111;-63
2021/09/21 00:22:16;;;;;;;14.57;10.82;;;;;;;10.08;90.00;100986.88;5093508;28;20035;-63
2021/09/21 00:24:41;;;;;;;15.27;10.77;;;;;;;10.03;90.03;100982.81;5093760;28;20016;-63
2021/09/21 00:27:07;;;;;;;16.48;10.50;;;;;;;10.01;89.77;100990.09;5092383;28;20036;-63
2021/09/21 00:29:32;;;;;;;13.85;10.50;;;;;;;9.95;90.36;100991.41;5093468;28;20506;-63
2021/09/21 00:32:01;;;;;;;15.98;11.35;;;;;;;9.89;90.67;100983.81;5093329;28;20035;-63
2021/09/21 00:34:37;;;;;;;18.30;11.73;;;;;;;9.91;91.45;100981.03;5093489;28;20100;-64
2021/09/21 00:37:05;;;;;;;15.95;11.52;;;;;;;9.88;91.94;100981.25;5093407;28;20081;-63
2021/09/21 00:39:30;;;;;;;16.65;11.90;;;;;;;9.86;91.85;100985.91;5092498;28;20494;-63
2021/09/21 00:41:56;;;;;;;17.88;12.18;;;;;;;9.77;92.16;100975.84;5093451;28;20028;-64
2021/09/21 00:44:21;;;;;;;15.75;10.70;;;;;;;9.80;92.03;100994.38;5093420;28;20028;-64
2021/09/21 00:46:48;;;;;;;18.17;11.63;;;;;;;9.78;92.28;100993.63;5093276;28;20506;-64
2021/09/21 00:49:14;;;;;;;19.38;12.15;;;;;;;9.75;91.62;100991.19;5091640;28;20044;-63
2021/09/21 00:51:40;;;;;;;15.02;11.20;;;;;;;9.73;91.97;100999.31;5091683;28;20020;-63
2021/09/21 00:54:05;;;;;;;14.82;10.55;;;;;;;9.72;91.58;100994.06;5093282;28;20031;-63
2021/09/21 00:56:32;;;;;;;15.68;10.25;;;;;;;9.68;91.19;101006.84;5093260;28;20032;-64
2021/09/21 00:58:57;;;;;;;16.90;11.43;;;;;;;9.66;91.02;101006.09;5091955;28;20036;-63
2021/09/21 01:01:23;;;;;;;13.73;10.07;;;;;;;9.62;90.80;101009.97;5092851;28;20388;-63
2021/09/21 01:03:49;;;;;;;18.13;10.98;;;;;;;9.57;90.91;101001.41;5092790;28;20077;-63
2021/09/21 01:06:15;;;;;;;15.65;10.70;;;;;;;9.56;91.42;101013.09;5092960;28;20043;-67
2021/09/21 01:08:41;;;;;;;16.42;11.18;;;;;;;9.53;91.60;101016.00;5093137;28;20527;-67
2021/09/21 01:11:11;;;;;;;14.82;11.07;;;;;;;9.48;91.23;101007.44;5092063;28;20737;-67
2021/09/21 01:13:37;;;;;;;15.52;10.63;;;;;;;9.45;90.65;101017.53;5092363;28;20103;-67
2021/09/21 01:16:04;;;;;;;14.45;11.23;;;;;;;9.36;90.41;101000.31;5092388;28;20034;-67
2021/09/21 01:18:31;;;;;;;16.55;11.23;;;;;;;9.32;90.05;101006.81;5092366;28;20112;-67
2021/09/21 01:21:05;;;;;;;15.13;10.63;;;;;;;9.22;90.10;101001.28;5092541;28;20089;-67
2021/09/21 01:23:32;;;;;;;15.27;10.90;;;;;;;9.24;90.65;101015.41;5091874;28;20527;-67
2021/09/21 01:25:58;;;;;;;15.27;11.35;;;;;;;9.20;90.78;101013.91;5091842;28;20031;-67
2021/09/21 01:28:23;;;;;;;14.98;11.05;;;;;;;9.18;90.64;101010.50;5091505;28;20040;-67
2021/09/21 01:30:49;;;;;;;15.40;10.80;;;;;;;9.13;90.33;101012.63;5091556;28;20085;-67
2021/09/21 01:33:21;;;;;;;15.45;11.20;;;;;;;9.08;90.27;101008.56;5091586;28;20024;-67
2021/09/21 01:35:46;;;;;;;16.92;11.18;;;;;;;9.07;90.62;101006.88;5091971;28;20480;-67
2021/09/21 01:38:12;;;;;;;15.40;10.15;;;;;;;9.03;90.35;101008.06;5091709;28;20031;-67
2021/09/21 01:40:37;;;;;;;16.55;10.57;;;;;;;9.02;90.00;101006.31;5116742;27;20025;-67
2021/09/21 01:43:02;;;;;;;19.67;10.77;;;;;;;8.98;90.26;101015.53;5115661;27;20055;-67
2021/09/21 01:45:28;;;;;;;14.27;9.95;;;;;;;8.95;90.39;101015.75;5090832;28;20032;-67
2021/09/21 01:47:55;;;;;;;15.95;10.40;;;;;;;8.89;90.11;101014.38;5091205;28;20509;-67
2021/09/21 01:50:29;;;;;;;15.02;10.30;;;;;;;8.91;90.50;101014.25;5089853;28;20418;-67
2021/09/21 01:53:23;;;;;;;14.23;10.27;;;;;;;8.89;90.47;101016.19;5091764;28;20028;-67
2021/09/21 02:00:41;;;;;;;12.98;10.10;;;;;;;8.77;89.94;101022.41;5091994;28;20029;-67
2021/09/21 02:03:07;;;;;;;14.38;9.63;;;;;;;8.70;89.88;101013.06;5091527;28;20090;-67
2021/09/21 02:05:32;;;;;;;21.48;10.32;;;;;;;8.72;89.49;101024.53;5091888;28;20040;-67
2021/09/21 02:07:57;;;;;;;14.55;10.30;;;;;;;8.66;90.22;101024.94;5091724;28;20628;-68
2021/09/21 02:10:23;;;;;;;14.68;10.10;;;;;;;8.62;90.59;101024.31;5091177;28;20298;-67
2021/09/21 02:12:48;;;;;;;17.90;10.73;;;;;;;8.56;90.61;101018.50;5091488;28;20646;-64
2021/09/21 02:15:14;;;;;;;15.68;10.68;;;;;;;8.59;90.23;101024.53;5091489;28;20030;-64
2021/09/21 02:17:39;;;;;;;14.63;10.18;;;;;;;8.53;90.54;101018.72;5091449;28;20030;-64
2021/09/21 02:20:06;;;;;;;16.50;10.57;;;;;;;8.57;90.89;101036.25;5091320;28;20051;-63
2021/09/21 02:22:31;;;;;;;14.50;9.50;;;;;;;8.53;91.05;101035.63;5091398;28;20034;-64
2021/09/21 02:24:57;;;;;;;15.77;10.52;;;;;;;8.53;91.88;101034.75;5091349;28;20172;-64
2021/09/21 02:27:25;;;;;;;14.23;10.48;;;;;;;8.49;91.55;101043.97;5091090;28;20073;-64
2021/09/21 02:29:51;;;;;;;17.33;11.13;;;;;;;8.51;92.30;101044.69;5091150;28;20420;-67
2021/09/21 02:32:17;;;;;;;14.82;10.85;;;;;;;8.49;92.47;101055.53;5091113;28;20360;-67
2021/09/21 02:34:45;;;;;;;14.32;10.18;;;;;;;8.49;91.97;101060.88;5091018;28;20039;-68
2021/09/21 02:37:12;;;;;;;13.93;10.15;;;;;;;8.45;91.86;101061.16;5089784;28;20028;-68
2021/09/21 02:39:38;;;;;;;13.32;9.68;;;;;;;8.40;92.12;101057.94;5090873;28;20028;-67
2021/09/21 02:42:03;;;;;;;13.52;9.95;;;;;;;8.43;91.97;101063.06;5091189;28;20051;-67
2021/09/21 02:44:29;;;;;;;15.40;9.98;;;;;;;8.33;91.81;101052.16;5091246;28;20031;-67
2021/09/21 02:46:54;;;;;;;15.43;10.32;;;;;;;8.32;91.86;101052.25;5091064;28;20405;-67
2021/09/21 02:49:20;;;;;;;14.52;9.63;;;;;;;8.38;91.40;101060.72;5089525;28;20032;-67
2021/09/21 02:51:45;;;;;;;15.88;9.68;;;;;;;8.37;91.19;101061.69;5091118;28;20103;-67
2021/09/21 02:54:11;;;;;;;16.35;9.60;;;;;;;8.32;91.43;101052.25;5090755;28;20472;-67
2021/09/21 02:56:36;;;;;;;13.40;9.77;;;;;;;8.34;91.30;101058.34;5090901;28;20040;-67
2021/09/21 02:59:02;;;;;;;12.35;9.65;;;;;;;8.32;91.71;101074.47;5089808;28;20490;-67
2021/09/21 03:01:27;;;;;;;14.32;9.43;;;;;;;8.27;91.08;101068.59;5091001;28;20043;-68
2021/09/21 03:03:57;;;;;;;14.13;10.32;;;;;;;8.26;91.13;101068.69;5091072;28;20023;-68
2021/09/21 03:06:32;;;;;;;13.90;9.05;;;;;;;8.23;91.22;101068.91;5090919;28;20028;-68
2021/09/21 03:11:50;;;;;;;14.55;9.60;;;;;;;8.22;92.28;101067.19;5061781;28;20096;-67
2021/09/21 03:20:04;;;;;;;16.38;11.00;;;;;;;8.13;92.70;101073.09;5028218;28;20145;-68
2021/09/21 03:22:30;;;;;;;18.13;11.20;;;;;;;8.16;92.46;101088.94;5028313;28;20021;-68
2021/09/21 03:24:56;;;;;;;15.98;10.48;;;;;;;8.11;92.84;101083.91;5045984;28;20036;-68
2021/09/21 03:27:22;;;;;;;13.43;9.88;;;;;;;8.14;92.63;101088.16;5090653;28;20027;-68
2021/09/21 03:29:48;;;;;;;13.43;9.15;;;;;;;8.12;91.03;101095.41;5090621;28;20639;-68
2021/09/21 03:32:14;;;;;;;16.50;10.50;;;;;;;8.10;88.20;101092.00;5090554;28;20103;-67
2021/09/21 03:34:39;;;;;;;21.80;10.05;;;;;;;8.07;88.06;101092.22;5090701;28;20506;-68
2021/09/21 03:37:09;;;;;;;13.75;10.07;;;;;;;7.97;88.29;101083.91;5090678;28;20028;-68
2021/09/21 03:39:36;;;;;;;16.27;10.38;;;;;;;7.95;87.73;101088.53;5090719;28;20032;-68
2021/09/21 03:42:02;;;;;;;15.68;10.68;;;;;;;7.87;86.84;101082.81;5090403;28;20391;-68
2021/09/21 03:44:27;;;;;;;13.65;9.95;;;;;;;7.80;86.85;101088.66;5090445;28;20031;-68
2021/09/21 03:46:54;;;;;;;16.80;10.68;;;;;;;7.77;87.64;101092.34;5090616;28;20044;-68
2021/09/21 03:49:20;;;;;;;15.43;11.50;;;;;;;7.67;88.10;101091.22;5090367;28;20040;-68
2021/09/21 03:51:46;;;;;;;15.18;10.75;;;;;;;7.57;89.41;101082.09;5090611;28;20052;-68
2021/09/21 03:54:12;;;;;;;16.50;10.90;;;;;;;7.58;89.72;101089.13;5090369;28;20059;-68
2021/09/21 03:56:38;;;;;;;17.30;10.68;;;;;;;7.48;90.44;101085.34;5090684;28;20027;-68
2021/09/21 03:59:04;;;;;;;16.42;10.82;;;;;;;7.51;90.56;101090.50;5090393;28;20468;-68
2021/09/21 04:01:30;;;;;;;16.40;11.15;;;;;;;7.49;90.03;101080.88;5090405;28;20032;-69
2021/09/21 04:03:55;;;;;;;16.70;11.35;;;;;;;7.45;90.68;101098.03;5090495;28;20391;-68
2021/09/21 04:06:21;;;;;;;16.70;11.35;;;;;;;7.42;91.99;101106.22;5090533;28;20391;-69
2021/09/21 04:08:46;;;;;;;16.52;11.93;;;;;;;7.36;91.79;101099.47;5094035;28;20363;-68
2021/09/21 04:11:26;;;;;;;19.77;12.55;;;;;;;7.30;92.15;101088.31;5093719;28;20483;-70
2021/09/21 04:13:52;;;;;;;20.63;12.80;;;;;;;7.35;93.13;101107.56;5092815;28;20488;-65
2021/09/21 04:16:19;;;;;;;18.65;12.35;;;;;;;7.37;93.11;101113.66;5093463;28;20104;-66
2021/09/21 04:18:45;;;;;;;19.13;13.27;;;;;;;7.34;93.83;101105.84;5093378;28;20032;-63
2021/09/21 04:21:12;;;;;;;21.70;13.70;;;;;;;7.29;93.52;101108.81;5092304;28;20032;-63
2021/09/21 04:23:41;;;;;;;22.27;14.10;;;;;;;7.32;93.59;101118.44;5093794;28;20102;-64
2021/09/21 04:26:09;;;;;;;19.67;12.93;;;;;;;7.29;93.73;101113.28;5093544;28;20101;-64
2021/09/21 04:28:36;;;;;;;21.42;12.68;;;;;;;7.32;94.00;101118.44;5093697;28;20026;-64
2021/09/21 04:31:09;;;;;;;23.33;13.45;;;;;;;7.30;93.74;101113.19;5093706;28;20034;-64
2021/09/21 04:33:39;;;;;;;19.25;13.40;;;;;;;7.32;93.34;101127.28;5093457;28;20092;-64
2021/09/21 04:36:11;;;;;;;24.02;13.23;;;;;;;7.32;93.70;101137.09;5093471;28;20422;-63
2021/09/21 04:38:37;;;;;;;20.70;13.75;;;;;;;7.31;93.14;101140.72;5093544;28;20081;-63
2021/09/21 04:41:04;;;;;;;21.25;13.00;;;;;;;7.28;93.52;101138.25;5093272;28;20486;-64
2021/09/21 04:43:30;;;;;;;21.73;13.45;;;;;;;7.31;93.57;101143.38;5092141;28;20119;-64
2021/09/21 04:45:55;;;;;;;19.10;13.68;;;;;;;7.31;93.92;101141.56;5093275;28;20028;-63
2021/09/21 04:48:21;;;;;;;24.13;14.27;;;;;;;7.31;94.52;101133.56;5093050;28;20157;-65
2021/09/21 04:50:46;;;;;;;23.33;14.77;;;;;;;7.35;94.65;101144.94;5093122;28;20120;-64
2021/09/21 04:53:12;;;;;;;23.77;13.80;;;;;;;7.39;94.37;101147.31;5092964;28;20024;-64
2021/09/21 04:55:38;;;;;;;21.48;14.00;;;;;;;7.40;94.27;101148.16;5093434;28;20532;-64
2021/09/21 04:58:03;;;;;;;25.60;15.20;;;;;;;7.37;94.78;101143.00;5093099;28;20105;-64
2021/09/21 05:00:29;;;;;;;22.92;14.45;;;;;;;7.44;94.75;101155.88;5093149;28;20090;-64
2021/09/21 05:02:54;;;;;;;20.25;14.23;;;;;;;7.49;95.21;101158.28;5093019;28;20364;-64
2021/09/21 05:05:22;;;;;;;22.00;14.93;;;;;;;7.46;95.03;101148.66;5108607;28;20028;-64
2021/09/21 05:07:48;;;;;;;22.55;14.60;;;;;;;7.48;94.68;101156.56;5091467;28;20130;-65
2021/09/21 05:10:13;;;;;;;25.42;14.27;;;;;;;7.58;95.35;101171.06;5091037;28;20044;-65
2021/09/21 05:12:39;;;;;;;26.17;15.07;;;;;;;7.59;96.21;101173.63;5091652;28;20082;-65
2021/09/21 05:15:05;;;;;;;26.63;14.77;;;;;;;7.66;96.79;101184.78;5092651;28;20379;-65
2021/09/21 05:17:30;;;;;;;22.02;15.23;;;;;;;7.73;97.05;101178.97;5091334;28;20024;-65
2021/09/21 05:19:56;;;;;;;21.23;14.38;;;;;;;7.76;97.05;101183.25;5091404;28;20538;-64
2021/09/21 05:22:22;;;;;;;24.65;15.00;;;;;;;7.82;98.13;101175.72;5092313;28;20024;-65
2021/09/21 05:24:47;;;;;;;22.27;13.95;;;;;;;7.85;98.71;101172.00;5092354;28;20387;-65
2021/09/21 05:27:13;;;;;;;22.48;15.05;;;;;;;7.97;99.22;101177.41;5091926;28;20107;-65
2021/09/21 05:29:38;;;;;;;25.08;14.38;;;;;;;8.02;99.69;101164.63;5092159;28;20023;-65
2021/09/21 05:32:04;;;;;;;19.08;13.73;;;;;;;8.13;100.00;101174.63;5091946;28;20038;-65
2021/09/21 05:34:29;;;;;;;23.50;14.45;;;;;;;8.23;100.00;101184.69;5090497;28;20020;-70
2021/09/21 05:36:55;;;;;;;22.73;13.32;;;;;;;8.37;100.00;101189.09;5092172;28;20032;-70
2021/09/21 05:39:20;;;;;;;19.75;13.15;;;;;;;8.47;100.00;101192.91;5091796;28;20012;-70
2021/09/21 05:41:45;;;;;;;18.67;12.73;;;;;;;8.58;100.00;101196.56;5092299;28;20062;-70
2021/09/21 05:44:11;;;;;;;17.45;12.27;;;;;;;8.69;100.00;101185.19;5091946;28;20507;-70
2021/09/21 05:46:36;;;;;;;22.42;12.73;;;;;;;8.76;100.00;101190.03;5092177;28;20035;-70
2021/09/21 05:49:02;;;;;;;19.42;12.73;;;;;;;8.88;100.00;101183.88;5092346;28;20522;-70
2021/09/21 05:51:28;;;;;;;16.02;11.27;;;;;;;8.96;100.00;101183.31;5091934;28;20067;-70
2021/09/21 05:53:54;;;;;;;18.67;11.85;;;;;;;9.10;99.76;101184.09;5091521;28;20380;-70
2021/09/21 05:56:21;;;;;;;15.85;10.75;;;;;;;9.19;99.56;101179.94;5091672;28;20028;-70
2021/09/21 05:58:47;;;;;;;15.25;10.52;;;;;;;9.33;98.58;101179.88;5091525;28;20601;-69
2021/09/21 06:01:12;;;;;;;14.30;10.52;;;;;;;9.43;97.58;101186.31;5091674;28;20024;-70
2021/09/21 06:03:38;;;;;;;15.63;10.57;;;;;;;9.54;97.19;101178.38;5091979;28;20040;-69
2021/09/21 06:06:03;;;;;;;13.05;9.43;;;;;;;9.55;96.67;101173.88;5091947;28;20047;-70
2021/09/21 06:08:29;;;;;;;12.63;9.02;;;;;;;9.74;95.77;101201.94;5090524;28;20036;-69
2021/09/21 06:10:55;;;;;;;12.40;9.20;;;;;;;9.81;95.22;101202.38;5091679;28;20055;-69
2021/09/21 06:13:20;;;;;;;14.63;8.57;;;;;;;9.96;94.50;101209.34;5091553;28;20032;-67
2021/09/21 06:15:47;;;;;;;11.60;8.68;;;;;;;10.00;93.99;101200.09;5091704;28;20474;-68
2021/09/21 06:18:13;;;;;;;10.07;7.68;;;;;;;10.12;92.93;101207.31;5091961;28;20023;-68
2021/09/21 06:20:40;;;;;;;10.73;7.72;;;;;;;10.25;92.91;101208.13;5090159;28;20530;-68
2021/09/21 06:23:05;;;;;;;9.95;7.38;;;;;;;10.38;91.65;101219.69;5091470;28;20035;-68
2021/09/21 06:25:31;;;;;;;9.90;7.22;;;;;;;10.49;90.50;101233.16;5091737;28;20116;-69
2021/09/21 06:27:56;;;;;;;8.43;6.57;;;;;;;10.60;88.59;101219.81;5091307;28;20028;-68
2021/09/21 06:30:22;;;;;;;8.65;6.63;;;;;;;10.74;87.54;101215.13;5090390;28;20026;-68
2021/09/21 06:32:48;;;;;;;11.48;7.18;;;;;;;10.96;87.20;101228.66;5090268;28;20101;-67
2021/09/21 06:35:14;;;;;;;10.98;6.63;;;;;;;11.18;86.70;101218.03;5088897;28;20027;-68
2021/09/21 06:37:40;;;;;;;9.80;6.38;;;;;;;11.45;86.34;101210.53;5090689;28;20383;-67
2021/09/21 06:40:08;;;;;;;6.80;5.57;;;;;;;11.84;83.50;101225.44;5091132;28;20052;-66
2021/09/21 06:42:34;;;;;;;8.02;5.43;;;;;;;12.16;80.81;101217.50;5089574;28;20034;-64
2021/09/21 06:45:00;;;;;;;6.80;5.63;;;;;;;12.45;78.00;101221.38;5090315;28;20114;-64
2021/09/21 06:47:26;;;;;;;7.13;5.40;;;;;;;12.69;74.86;101222.91;5081841;28;20024;-64
2021/09/21 06:49:52;;;;;;;6.35;4.93;;;;;;;12.94;73.02;101219.03;5090748;28;20472;-64
2021/09/21 06:52:17;;;;;;;5.53;4.70;;;;;;;13.12;70.21;101214.81;5090955;28;20024;-64
2021/09/21 06:54:42;;;;;;;6.88;4.35;;;;;;;13.38;68.17;101224.25;5091035;28;20077;-65
2021/09/21 06:57:08;;;;;;;5.75;4.47;;;;;;;13.56;67.45;101212.78;5123451;27;20073;-63
2021/09/21 06:59:33;;;;;;;5.90;4.90;;;;;;;13.74;66.78;101211.16;5090830;28;20436;-64
2021/09/21 07:01:59;;;;;;;7.47;5.38;;;;;;;13.95;65.17;101216.53;5090260;28;20034;-64
2021/09/21 07:04:24;;;;;;;7.82;5.10;;;;;;;14.17;63.15;101224.47;5090125;28;20024;-67
2021/09/21 07:06:50;;;;;;;9.20;5.43;;;;;;;14.35;62.98;101230.09;5090870;28;20039;-67
2021/09/21 07:09:15;;;;;;;7.05;4.80;;;;;;;14.50;62.89;101231.41;5090512;28;20043;-67
2021/09/21 07:11:40;;;;;;;6.13;4.00;;;;;;;14.70;62.24;101238.59;5090583;28;20031;-67
2021/09/21 07:14:06;;;;;;;9.15;4.95;;;;;;;14.89;61.04;101247.59;5090242;28;20115;-67
2021/09/21 07:16:31;;;;;;;6.38;4.95;;;;;;;15.07;60.42;101243.22;5090116;28;20103;-63
2021/09/21 07:18:57;;;;;;;5.72;4.85;;;;;;;15.27;60.31;101244.94;5090505;28;20028;-63
2021/09/21 07:21:22;;;;;;;6.28;4.95;;;;;;;15.48;58.78;101251.06;5089132;28;20032;-63
2021/09/21 07:23:48;;;;;;;4.72;4.22;;;;;;;15.70;57.40;101249.88;5090621;28;20074;-63
2021/09/21 07:26:14;;;;;;;5.20;3.95;;;;;;;15.83;56.42;101237.78;5090637;28;20546;-63
2021/09/21 07:28:40;;;;;;;5.15;4.03;;;;;;;16.00;55.67;101244.28;5090372;28;20008;-64
2021/09/21 07:31:05;;;;;;;6.45;4.70;;;;;;;16.21;55.27;101233.22;5090020;28;20044;-64
2021/09/21 07:33:31;;;;;;;5.97;4.35;;;;;;;16.41;54.63;101234.88;5090133;28;20032;-64
2021/09/21 07:35:56;;;;;;;5.10;4.35;;;;;;;16.61;53.25;101248.19;5090374;28;20452;-65
2021/09/21 07:38:22;;;;;;;4.10;3.70;;;;;;;16.82;53.38;101256.91;5090349;28;20494;-65
2021/09/21 07:40:48;;;;;;;4.82;4.25;;;;;;;17.11;51.29;101268.41;5090556;28;20024;-64
2021/09/21 07:43:14;;;;;;;5.00;4.15;;;;;;;17.44;50.09;101267.75;5093250;28;20024;-64
2021/09/21 07:45:39;;;;;;;3.72;3.28;;;;;;;18.01;48.92;101264.50;5094113;28;20361;-65
2021/09/21 07:48:06;;;;;;;4.28;3.10;;;;;;;19.06;46.73;101260.41;5093934;28;20086;-64
2021/09/21 07:50:31;;;;;;;4.28;3.70;;;;;;;20.11;44.65;101264.06;5094151;28;20032;-64
2021/09/21 07:52:57;;;;;;;5.10;3.65;;;;;;;21.12;42.11;101263.25;5094348;28;20115;-64
2021/09/21 07:55:23;;;;;;;5.18;3.90;;;;;;;22.18;39.91;101258.47;5094023;28;20028;-65
2021/09/21 07:57:49;;;;;;;7.00;3.40;;;;;;;23.27;37.38;101251.13;5094049;28;20456;-65
2021/09/21 08:00:17;;;;;;;3.15;2.90;;;;;;;24.23;36.09;101246.78;5094004;28;20077;-65
2021/09/21 08:02:43;;;;;;;3.83;3.20;;;;;;;25.26;34.20;101247.50;5092106;28;20109;-65
2021/09/21 08:05:10;;;;;;;4.03;3.55;;;;;;;26.11;32.71;101248.47;5093860;28;20031;-65
2021/09/21 08:07:36;;;;;;;3.83;3.53;;;;;;;26.80;31.89;101245.19;5093905;28;20024;-65
2021/09/21 08:10:05;;;;;;;3.88;3.17;;;;;;;27.50;30.44;101248.63;5093382;28;20093;-68
2021/09/21 08:12:32;;;;;;;6.28;3.47;;;;;;;28.16;29.69;101241.56;5093890;28;20375;-68
2021/09/21 08:14:57;;;;;;;4.22;3.25;;;;;;;28.58;29.00;101234.34;5093897;28;20028;-68
2021/09/21 08:17:25;;;;;;;5.22;3.20;;;;;;;29.03;28.45;101244.03;5092680;28;20112;-68
2021/09/21 08:19:52;;;;;;;3.72;3.42;;;;;;;29.56;27.72;101242.19;5093663;28;20034;-68
2021/09/21 08:22:18;;;;;;;3.72;3.42;;;;;;;30.00;26.67;101238.09;5093090;28;20721;-68
2021/09/21 08:24:46;;;;;;;3.80;3.42;;;;;;;30.08;26.53;101251.59;5093383;28;20032;-67
2021/09/21 08:27:12;;;;;;;3.33;3.03;;;;;;;30.36;26.15;101258.13;5093658;28;20491;-67
2021/09/21 08:29:38;;;;;;;3.83;3.38;;;;;;;30.80;25.71;101248.34;5093884;28;20488;-67
2021/09/21 08:32:04;;;;;;;3.28;2.97;;;;;;;31.03;25.30;101247.44;5093441;28;20496;-67
2021/09/21 08:34:30;;;;;;;3.35;3.05;;;;;;;31.26;24.83;101242.66;5093229;28;20085;-67
2021/09/21 08:36:56;;;;;;;4.05;3.20;;;;;;;31.38;24.88;101257.34;5092829;28;20082;-67
2021/09/21 08:39:22;;;;;;;3.53;3.22;;;;;;;31.11;24.87;101261.75;5092740;28;20541;-67
2021/09/21 08:41:49;;;;;;;4.10;3.45;;;;;;;31.39;24.49;101258.19;5093313;28;20028;-67
2021/09/21 08:44:14;;;;;;;3.67;3.38;;;;;;;31.65;24.06;101252.00;5093079;28;20031;-67
2021/09/21 08:46:40;;;;;;;5.15;3.60;;;;;;;31.82;23.88;101258.47;5093026;28;20024;-68
2021/09/21 08:49:06;;;;;;;5.25;3.70;;;;;;;31.94;24.00;101257.28;5093239;28;20046;-68
2021/09/21 08:51:31;;;;;;;3.83;3.47;;;;;;;32.32;23.43;101254.59;5093061;28;20067;-68
2021/09/21 08:53:57;;;;;;;3.80;3.50;;;;;;;32.50;23.58;101261.84;5092862;28;20073;-68
2021/09/21 08:56:22;;;;;;;3.72;3.42;;;;;;;32.50;23.31;101259.88;5093055;28;20077;-68
2021/09/21 08:59:04;;;;;;;5.55;3.40;;;;;;;32.81;23.04;101250.03;5091876;28;20419;-65
2021/09/21 09:01:38;;;;;;;3.72;3.42;;;;;;;32.83;22.66;101253.41;5092862;28;20484;-65
2021/09/21 09:04:04;;;;;;;3.35;3.05;;;;;;;32.52;22.76;101259.63;5092880;28;20108;-65
2021/09/21 09:06:29;;;;;;;4.25;3.67;;;;;;;32.48;23.06;101264.88;5091410;28;20472;-65
2021/09/21 09:08:55;;;;;;;2.95;2.75;;;;;;;32.37;22.94;101270.53;5092898;28;20024;-65
2021/09/21 09:11:26;;;;;;;2.72;2.53;;;;;;;32.04;23.12;101265.78;5092451;28;20372;-65
2021/09/21 09:13:58;;;;;;;3.33;3.03;;;;;;;30.89;24.36;101277.38;5091520;28;20024;-65
2021/09/21 09:16:33;;;;;;;3.88;2.67;;;;;;;29.92;25.38;101278.03;5092526;28;20052;-65
2021/09/21 09:19:11;;;;;;;4.85;3.40;;;;;;;29.04;26.33;101270.56;5091351;28;20024;-67
2021/09/21 09:21:38;;;;;;;4.72;3.83;;;;;;;28.17;27.76;101273.59;5092720;28;20032;-67
2021/09/21 09:24:07;;;;;;;5.10;3.25;;;;;;;26.93;28.87;101275.41;5092517;28;20488;-67
2021/09/21 09:26:41;;;;;;;4.97;3.33;;;;;;;25.84;30.10;101268.78;5092548;28;20139;-67
2021/09/21 09:29:12;;;;;;;3.97;3.67;;;;;;;24.96;31.74;101270.84;5092395;28;20028;-67
2021/09/21 09:31:40;;;;;;;4.15;3.80;;;;;;;24.40;32.25;101282.94;5092394;28;20024;-65
2021/09/21 09:34:18;;;;;;;4.45;3.42;;;;;;;23.71;32.87;101292.91;5092240;28;20368;-65
2021/09/21 09:36:53;;;;;;;4.15;3.75;;;;;;;23.22;34.15;101293.78;5092295;28;20067;-65
2021/09/21 09:39:24;;;;;;;4.13;3.65;;;;;;;22.93;34.58;101296.59;5092044;28;20032;-65
2021/09/21 09:41:52;;;;;;;4.45;4.07;;;;;;;22.63;35.41;101290.28;5092372;28;20024;-65
2021/09/21 09:44:23;;;;;;;4.93;4.45;;;;;;;22.33;36.27;101291.28;5090685;28;20439;-65
2021/09/21 09:46:56;;;;;;;4.15;3.40;;;;;;;22.18;36.63;101290.41;5091907;28;20016;-65
2021/09/21 09:49:26;;;;;;;4.18;3.65;;;;;;;21.98;37.11;101297.41;5091879;28;20036;-65
2021/09/21 09:51:53;;;;;;;4.13;3.40;;;;;;;21.78;37.36;101299.81;5092072;28;20028;-66
2021/09/21 09:54:18;;;;;;;4.05;3.25;;;;;;;21.60;37.90;101288.31;5091760;28;20052;-65
2021/09/21 09:56:45;;;;;;;4.97;3.47;;;;;;;21.30;37.99;101283.75;5091775;28;20111;-65
2021/09/21 09:59:13;;;;;;;5.45;4.05;;;;;;;21.10;38.65;101281.66;5091560;28;20061;-65
2021/09/21 10:01:40;;;;;;;3.75;3.42;;;;;;;20.95;38.82;101289.75;5091576;28;20020;-66
2021/09/21 10:04:06;;;;;;;4.22;3.70;;;;;;;20.65;38.72;101282.34;5091289;28;20024;-66
2021/09/21 10:06:31;;;;;;;3.97;3.58;;;;;;;20.42;39.27;101284.13;5089774;28;20020;-65
2021/09/21 10:09:00;;;;;;;5.80;4.40;;;;;;;20.40;39.13;101293.50;5091408;28;20032;-65
2021/09/21 10:11:30;;;;;;;5.78;3.70;;;;;;;20.11;39.76;101294.94;5091410;28;20036;-64
2021/09/21 10:14:01;;;;;;;6.38;3.60;;;;;;;19.88;40.43;101296.63;5091460;28;20353;-64
2021/09/21 10:16:27;;;;;;;4.85;3.90;;;;;;;19.74;41.00;101300.00;5091193;28;20023;-66
2021/09/21 10:18:55;;;;;;;4.30;3.90;;;;;;;19.67;41.07;101298.16;5091586;28;20032;-65
2021/09/21 10:21:38;;;;;;;4.88;4.05;;;;;;;19.58;41.46;101300.00;5090106;28;20056;-64
2021/09/21 10:24:06;;;;;;;4.38;3.85;;;;;;;19.51;42.79;101311.75;5089940;28;20028;-64
2021/09/21 10:26:39;;;;;;;5.93;4.70;;;;;;;19.45;42.34;101305.06;5090915;28;20016;-64
2021/09/21 10:29:05;;;;;;;6.03;4.70;;;;;;;19.36;42.27;101313.41;5091375;28;20036;-65
2021/09/21 10:31:31;;;;;;;6.60;4.75;;;;;;;19.22;42.44;101311.31;5091020;28;20189;-64
2021/09/21 10:33:57;;;;;;;7.85;4.05;;;;;;;19.12;42.69;101311.44;5091207;28;20024;-64
2021/09/21 10:36:30;;;;;;;5.82;4.28;;;;;;;18.96;43.21;101302.38;5090437;28;20020;-65
2021/09/21 10:38:57;;;;;;;5.25;4.10;;;;;;;18.87;43.54;101319.69;5090506;28;20484;-64
2021/09/21 10:41:23;;;;;;;5.50;4.57;;;;;;;18.74;43.59;101317.44;5090355;28;20054;-64
2021/09/21 10:44:06;;;;;;;6.38;4.32;;;;;;;18.59;44.35;101312.75;5090425;28;20031;-63
2021/09/21 10:46:52;;;;;;;6.05;4.97;;;;;;;18.47;44.43;101320.31;5088832;28;20111;-64
2021/09/21 10:49:34;;;;;;;5.85;4.35;;;;;;;18.35;44.86;101318.88;5089852;28;20039;-66
2021/09/21 10:52:02;;;;;;;6.78;4.38;;;;;;;18.24;45.02;101319.13;5088955;28;20036;-66
2021/09/21 10:54:32;;;;;;;5.75;4.47;;;;;;;18.15;45.55;101308.38;5089840;28;20689;-67
2021/09/21 10:57:29;;;;;;;5.68;4.38;;;;;;;18.04;45.40;101310.34;5088388;28;20511;-66
2021/09/21 11:00:16;;;;;;;6.55;4.18;;;;;;;17.96;46.05;101312.16;5076752;28;20078;-67
2021/09/21 11:02:49;;;;;;;6.68;4.43;;;;;;;17.87;45.72;101313.91;5089884;28;20109;-67
2021/09/21 11:05:17;;;;;;;6.05;4.57;;;;;;;17.80;45.50;101317.44;5090741;28;20178;-67
2021/09/21 11:07:50;;;;;;;5.57;3.75;;;;;;;17.75;45.79;101334.19;5090725;28;20016;-66
2021/09/21 11:10:17;;;;;;;4.45;3.88;;;;;;;17.61;46.05;101314.91;5090134;28;20110;-67
2021/09/21 11:12:48;;;;;;;5.15;4.05;;;;;;;17.61;46.33;101326.56;5090197;28;20042;-66
2021/09/21 11:15:15;;;;;;;6.93;4.20;;;;;;;17.61;46.32;101331.19;5088579;28;20020;-66
2021/09/21 11:17:41;;;;;;;5.15;4.43;;;;;;;17.50;46.18;101323.25;5094566;28;20028;-66
2021/09/21 11:20:07;;;;;;;4.93;4.22;;;;;;;17.44;46.71;101318.44;5094779;28;20061;-66
2021/09/21 11:22:32;;;;;;;5.13;4.03;;;;;;;17.44;46.06;101330.16;5093341;28;20145;-66
2021/09/21 11:25:16;;;;;;;5.10;3.97;;;;;;;17.40;45.89;101326.00;5094884;28;20532;-66
2021/09/21 11:27:42;;;;;;;4.72;3.95;;;;;;;17.43;46.20;101324.88;5094767;28;20027;-66
2021/09/21 11:30:10;;;;;;;5.53;3.95;;;;;;;17.41;45.48;101316.84;5094672;28;20036;-64
2021/09/21 11:32:36;;;;;;;5.18;4.63;;;;;;;17.34;46.06;101318.50;5094726;28;20032;-64
2021/09/21 11:35:13;;;;;;;5.93;4.68;;;;;;;17.37;46.40;101315.47;5094680;28;20079;-66